Time,TemperatureF,DewpointF,PressureIn,WindDirection,WindDirectionDegrees,WindSpeedMPH,WindSpeedGustMPH,Humidity,HourlyPrecipIn,Conditions,Clouds,dailyrainin,SolarRadiationWatts/m^2,SoftwareType,DateUTC
2013-10-11 00:02:00,54.6,42.7,29.84,West,275,0.0,0.0,64,0.00,,,0.00,0,WeatherTracker,2013-10-11 07:02:00,
2013-10-11 00:12:00,54.6,42.7,29.84,West,275,0.0,0.0,64,0.00,,,0.00,0,WeatherTracker,2013-10-11 07:12:00,
2013-10-11 00:22:00,54.4,42.5,29.85,West,275,0.0,0.0,64,0.00,,,0.00,0,WeatherTracker,2013-10-11 07:22:00,
2013-10-11 00:32:00,54.2,42.3,29.85,West,275,0.0,0.0,64,0.00,,,0.00,0,WeatherTracker,2013-10-11 07:32:00,
2013-10-11 00:42:00,53.9,42.8,29.85,West,275,0.0,0.0,66,0.00,,,0.00,0,WeatherTracker,2013-10-11 07:42:00,
2013-10-11 00:52:00,53.8,43.1,29.85,West,275,0.0,0.0,67,0.00,,,0.00,0,WeatherTracker,2013-10-11 07:52:00,
2013-10-11 01:02:00,53.7,43.0,29.86,West,275,0.0,0.0,67,0.00,,,0.00,0,WeatherTracker,2013-10-11 08:02:00,
2013-10-11 01:12:00,53.7,43.0,29.86,West,275,0.0,0.0,67,0.00,,,0.00,0,WeatherTracker,2013-10-11 08:12:00,
2013-10-11 01:22:00,53.5,42.8,29.86,West,275,0.0,0.0,67,0.00,,,0.00,0,WeatherTracker,2013-10-11 08:22:00,
2013-10-11 01:32:00,53.3,42.6,29.86,West,275,0.0,0.0,67,0.00,,,0.00,0,WeatherTracker,2013-10-11 08:32:00,
2013-10-11 01:42:00,53.2,42.5,29.87,West,275,0.0,0.0,67,0.00,,,0.00,0,WeatherTracker,2013-10-11 08:42:00,
2013-10-11 01:48:00,53.1,42.4,29.87,West,275,0.0,0.0,67,0.00,,,0.00,0,WeatherTracker,2013-10-11 08:48:00,
2013-10-11 01:57:00,52.8,42.1,29.87,West,275,0.0,0.0,67,0.00,,,0.00,0,WeatherTracker,2013-10-11 08:57:00,
2013-10-11 02:02:00,52.7,42.1,29.87,West,275,0.0,0.0,67,0.00,,,0.00,0,WeatherTracker,2013-10-11 09:02:00,
2013-10-11 02:12:00,52.3,42.1,29.87,West,275,0.0,0.0,68,0.00,,,0.00,0,WeatherTracker,2013-10-11 09:12:00,
2013-10-11 02:17:00,52.2,42.0,29.87,West,275,0.0,0.0,68,0.00,,,0.00,0,WeatherTracker,2013-10-11 09:17:00,
2013-10-11 02:27:00,52.0,41.8,29.87,West,275,0.0,0.0,68,0.00,,,0.00,0,WeatherTracker,2013-10-11 09:27:00,
2013-10-11 02:37:00,51.7,42.2,29.87,West,275,0.0,0.0,70,0.00,,,0.00,0,WeatherTracker,2013-10-11 09:37:00,
2013-10-11 02:42:00,51.6,42.1,29.87,West,275,0.0,0.0,70,0.00,,,0.00,0,WeatherTracker,2013-10-11 09:42:00,
2013-10-11 02:52:00,51.4,41.9,29.87,West,275,0.0,0.0,70,0.00,,,0.00,0,WeatherTracker,2013-10-11 09:52:00,
2013-10-11 03:02:00,51.2,42.1,29.88,West,275,0.0,0.0,71,0.00,,,0.00,0,WeatherTracker,2013-10-11 10:02:00,
2013-10-11 03:12:00,51.1,42.0,29.87,West,275,0.0,0.0,71,0.00,,,0.00,0,WeatherTracker,2013-10-11 10:12:00,
2013-10-11 03:22:00,51.0,41.9,29.87,West,275,0.0,0.0,71,0.00,,,0.00,0,WeatherTracker,2013-10-11 10:22:00,
2013-10-11 03:32:00,51.0,42.3,29.87,West,275,0.0,0.0,72,0.00,,,0.00,0,WeatherTracker,2013-10-11 10:32:00,
2013-10-11 03:37:00,50.9,42.2,29.88,West,275,0.0,0.0,72,0.00,,,0.00,0,WeatherTracker,2013-10-11 10:37:00,
2013-10-11 03:47:00,50.9,42.2,29.87,West,275,0.0,0.0,72,0.00,,,0.00,0,WeatherTracker,2013-10-11 10:47:00,
2013-10-11 03:52:00,50.9,42.2,29.87,West,275,0.0,0.0,72,0.00,,,0.00,0,WeatherTracker,2013-10-11 10:52:00,
2013-10-11 03:58:00,50.9,42.2,29.88,West,275,0.0,0.0,72,0.00,,,0.00,0,WeatherTracker,2013-10-11 10:58:00,
2013-10-11 04:07:00,50.9,42.2,29.87,West,275,0.0,0.0,72,0.00,,,0.00,0,WeatherTracker,2013-10-11 11:07:00,
2013-10-11 04:17:00,50.9,42.2,29.88,West,275,0.0,0.0,72,0.00,,,0.00,0,WeatherTracker,2013-10-11 11:17:00,
2013-10-11 04:27:00,50.9,42.2,29.88,West,275,0.0,0.0,72,0.00,,,0.00,0,WeatherTracker,2013-10-11 11:27:00,
2013-10-11 04:37:00,50.9,42.6,29.89,West,275,0.0,0.0,73,0.00,,,0.00,0,WeatherTracker,2013-10-11 11:37:00,
2013-10-11 04:47:00,50.9,42.2,29.89,West,275,0.0,0.0,72,0.00,,,0.00,0,WeatherTracker,2013-10-11 11:47:00,
2013-10-11 04:57:00,50.8,42.1,29.89,West,275,0.0,0.0,72,0.00,,,0.00,0,WeatherTracker,2013-10-11 11:57:00,
2013-10-11 05:02:00,50.8,42.1,29.89,West,275,0.0,0.0,72,0.00,,,0.00,0,WeatherTracker,2013-10-11 12:02:00,
2013-10-11 05:12:00,50.7,42.0,29.89,West,275,0.0,0.0,72,0.00,,,0.00,0,WeatherTracker,2013-10-11 12:12:00,
2013-10-11 05:17:00,50.6,41.9,29.89,West,275,0.0,0.0,72,0.00,,,0.00,0,WeatherTracker,2013-10-11 12:17:00,
2013-10-11 05:22:00,50.4,41.7,29.89,West,275,0.0,0.0,72,0.00,,,0.00,0,WeatherTracker,2013-10-11 12:22:00,
2013-10-11 05:32:00,50.2,41.5,29.89,West,275,0.0,0.0,72,0.00,,,0.00,0,WeatherTracker,2013-10-11 12:32:00,
2013-10-11 05:42:00,49.9,41.2,29.89,West,275,0.0,0.0,72,0.00,,,0.00,0,WeatherTracker,2013-10-11 12:42:00,
2013-10-11 05:52:00,49.6,41.7,29.90,West,275,0.0,0.0,74,0.00,,,0.00,0,WeatherTracker,2013-10-11 12:52:00,
2013-10-11 06:02:00,49.3,41.7,29.90,West,275,0.0,0.0,75,0.00,,,0.00,0,WeatherTracker,2013-10-11 13:02:00,
2013-10-11 06:12:00,49.1,41.9,29.90,West,275,0.0,0.0,76,0.00,,,0.00,0,WeatherTracker,2013-10-11 13:12:00,
2013-10-11 06:22:00,48.9,41.3,29.90,West,275,0.0,0.0,75,0.00,,,0.00,0,WeatherTracker,2013-10-11 13:22:00,
2013-10-11 06:32:00,48.7,41.5,29.90,West,275,0.0,0.0,76,0.00,,,0.00,5,WeatherTracker,2013-10-11 13:32:00,
2013-10-11 06:42:00,48.4,41.5,29.90,West,275,0.0,0.0,77,0.00,,,0.00,12,WeatherTracker,2013-10-11 13:42:00,
2013-10-11 06:52:00,48.4,41.9,29.90,West,275,0.0,0.0,78,0.00,,,0.00,35,WeatherTracker,2013-10-11 13:52:00,
2013-10-11 07:02:00,48.6,42.1,29.91,West,275,0.0,0.0,78,0.00,,,0.00,81,WeatherTracker,2013-10-11 14:02:00,
2013-10-11 07:07:00,48.7,42.2,29.91,West,275,0.0,0.0,78,0.00,,,0.00,98,WeatherTracker,2013-10-11 14:07:00,
2013-10-11 07:17:00,49.6,43.0,29.91,West,275,0.0,0.0,78,0.00,,,0.00,137,WeatherTracker,2013-10-11 14:17:00,
2013-10-11 07:27:00,50.8,43.2,29.91,West,275,0.0,0.0,75,0.00,,,0.00,134,WeatherTracker,2013-10-11 14:27:00,
2013-10-11 07:32:00,51.4,43.4,29.92,West,275,0.0,0.0,74,0.00,,,0.00,197,WeatherTracker,2013-10-11 14:32:00,
2013-10-11 07:37:00,52.1,43.7,29.92,West,275,0.0,0.0,73,0.00,,,0.00,193,WeatherTracker,2013-10-11 14:37:00,
2013-10-11 07:47:00,53.5,44.0,29.92,West,275,0.0,0.0,70,0.00,,,0.00,44,WeatherTracker,2013-10-11 14:47:00,
2013-10-11 07:52:00,54.2,43.9,29.92,West,275,0.0,0.0,68,0.00,,,0.00,149,WeatherTracker,2013-10-11 14:52:00,
2013-10-11 08:02:00,56.0,44.4,29.92,West,275,0.0,0.0,65,0.00,,,0.00,264,WeatherTracker,2013-10-11 15:02:00,
2013-10-11 08:12:00,57.6,44.7,29.93,West,275,0.0,0.0,62,0.00,,,0.00,258,WeatherTracker,2013-10-11 15:12:00,
2013-10-11 08:17:00,58.3,44.9,29.93,West,275,0.0,0.0,61,0.00,,,0.00,304,WeatherTracker,2013-10-11 15:17:00,
2013-10-11 08:22:00,59.0,44.7,29.93,West,275,0.0,0.0,59,0.00,,,0.00,385,WeatherTracker,2013-10-11 15:22:00,
2013-10-11 08:32:00,60.3,44.5,29.93,West,275,0.0,0.0,56,0.00,,,0.00,434,WeatherTracker,2013-10-11 15:32:00,
2013-10-11 08:42:00,61.8,45.0,29.93,West,275,0.0,0.0,54,0.00,,,0.00,332,WeatherTracker,2013-10-11 15:42:00,
2013-10-11 08:52:00,63.1,44.2,29.93,West,275,1.0,0.0,50,0.00,,,0.00,466,WeatherTracker,2013-10-11 15:52:00,
2013-10-11 08:57:00,63.7,44.7,29.93,West,275,0.0,0.0,50,0.00,,,0.00,434,WeatherTracker,2013-10-11 15:57:00,
2013-10-11 09:02:00,64.2,44.6,29.93,West,275,0.0,0.0,49,0.00,,,0.00,527,WeatherTracker,2013-10-11 16:02:00,
2013-10-11 09:12:00,65.0,44.3,29.93,West,275,1.0,0.0,47,0.00,,,0.00,527,WeatherTracker,2013-10-11 16:12:00,
2013-10-11 09:22:00,65.6,44.8,29.93,West,271,2.0,0.0,47,0.00,,,0.00,420,WeatherTracker,2013-10-11 16:22:00,
2013-10-11 09:32:00,66.4,44.4,29.93,West,271,0.0,0.0,45,0.00,,,0.00,446,WeatherTracker,2013-10-11 16:32:00,
2013-10-11 09:42:00,67.2,44.5,29.93,West,267,0.0,0.0,44,0.00,,,0.00,531,WeatherTracker,2013-10-11 16:42:00,
2013-10-11 09:52:00,67.9,44.6,29.93,West,265,1.0,0.0,43,0.00,,,0.00,519,WeatherTracker,2013-10-11 16:52:00,
2013-10-11 10:02:00,68.5,44.5,29.93,SSW,205,0.0,0.0,42,0.00,,,0.00,578,WeatherTracker,2013-10-11 17:02:00,
2013-10-11 10:07:00,68.7,44.7,29.93,SSW,206,0.0,0.0,42,0.00,,,0.00,575,WeatherTracker,2013-10-11 17:07:00,
2013-10-11 10:17:00,69.0,44.3,29.93,SSW,204,2.0,0.0,41,0.00,,,0.00,596,WeatherTracker,2013-10-11 17:17:00,
2013-10-11 10:22:00,69.4,44.7,29.93,SSW,211,0.0,0.0,41,0.00,,,0.00,717,WeatherTracker,2013-10-11 17:22:00,
2013-10-11 10:32:00,70.1,44.0,29.92,South,183,0.0,0.0,39,0.00,,,0.00,613,WeatherTracker,2013-10-11 17:32:00,
2013-10-11 10:42:00,70.8,43.9,29.92,SSW,198,0.0,0.0,38,0.00,,,0.00,568,WeatherTracker,2013-10-11 17:42:00,
2013-10-11 10:52:00,71.0,44.1,29.92,West,271,1.0,0.0,38,0.00,,,0.00,654,WeatherTracker,2013-10-11 17:52:00,
2013-10-11 11:02:00,71.5,43.8,29.92,WSW,256,0.0,0.0,37,0.00,,,0.00,652,WeatherTracker,2013-10-11 18:02:00,
2013-10-11 11:12:00,71.7,44.0,29.91,West,275,2.0,0.0,37,0.00,,,0.00,649,WeatherTracker,2013-10-11 18:12:00,
2013-10-11 11:22:00,72.2,43.7,29.91,ESE,110,2.0,0.0,36,0.00,,,0.00,647,WeatherTracker,2013-10-11 18:22:00,
2013-10-11 11:33:00,72.6,43.4,29.91,SSW,207,0.0,0.0,35,0.00,,,0.00,759,WeatherTracker,2013-10-11 18:33:00,
2013-10-11 11:42:00,73.1,43.0,29.91,SW,218,0.0,0.0,34,0.00,,,0.00,803,WeatherTracker,2013-10-11 18:42:00,
2013-10-11 11:52:00,73.7,43.6,29.90,WNW,297,0.0,0.0,34,0.00,,,0.00,506,WeatherTracker,2013-10-11 18:52:00,
2013-10-11 11:57:00,74.0,43.8,29.90,WNW,285,2.0,0.0,34,0.00,,,0.00,754,WeatherTracker,2013-10-11 18:57:00,
2013-10-11 12:02:00,74.2,43.2,29.90,WNW,299,0.0,0.0,33,0.00,,,0.00,165,WeatherTracker,2013-10-11 19:02:00,
2013-10-11 12:12:00,73.9,43.0,29.89,West,281,0.0,0.0,33,0.00,,,0.00,603,WeatherTracker,2013-10-11 19:12:00,
2013-10-11 12:17:00,74.2,43.2,29.89,SW,230,0.0,0.0,33,0.00,,,0.00,758,WeatherTracker,2013-10-11 19:17:00,
2013-10-11 12:22:00,74.7,42.9,29.88,SSW,194,1.0,0.0,32,0.00,,,0.00,751,WeatherTracker,2013-10-11 19:22:00,
2013-10-11 12:32:00,74.9,43.8,29.87,SSE,157,2.0,0.0,33,0.00,,,0.00,663,WeatherTracker,2013-10-11 19:32:00,
2013-10-11 12:42:00,75.8,43.8,29.87,SSW,205,2.0,0.0,32,0.00,,,0.00,631,WeatherTracker,2013-10-11 19:42:00,
2013-10-11 12:52:00,76.5,43.6,29.86,WNW,284,0.0,0.0,31,0.00,,,0.00,664,WeatherTracker,2013-10-11 19:52:00,
2013-10-11 13:02:00,76.3,42.6,29.86,SW,228,3.0,0.0,30,0.00,,,0.00,735,WeatherTracker,2013-10-11 20:02:00,
2013-10-11 13:12:00,76.3,42.6,29.86,WNW,289,0.0,0.0,30,0.00,,,0.00,747,WeatherTracker,2013-10-11 20:12:00,
2013-10-11 13:22:00,76.5,42.7,29.85,WNW,287,2.0,0.0,30,0.00,,,0.00,617,WeatherTracker,2013-10-11 20:22:00,
2013-10-11 13:32:00,76.9,43.9,29.85,SSW,196,0.0,0.0,31,0.00,,,0.00,561,WeatherTracker,2013-10-11 20:32:00,
2013-10-11 13:43:00,77.1,42.4,29.85,WNW,288,1.0,0.0,29,0.00,,,0.00,649,WeatherTracker,2013-10-11 20:43:00,
2013-10-11 13:52:00,77.2,43.3,29.85,WSW,249,1.0,0.0,30,0.00,,,0.00,626,WeatherTracker,2013-10-11 20:52:00,
2013-10-11 14:02:00,77.9,43.1,29.85,North,355,0.0,0.0,29,0.00,,,0.00,504,WeatherTracker,2013-10-11 21:02:00,
2013-10-11 14:12:00,78.2,42.4,29.85,WSW,257,0.0,0.0,28,0.00,,,0.00,617,WeatherTracker,2013-10-11 21:12:00,
2013-10-11 14:22:00,78.3,42.5,29.84,West,281,0.0,0.0,28,0.00,,,0.00,526,WeatherTracker,2013-10-11 21:22:00,
2013-10-11 14:32:00,78.4,42.6,29.84,West,276,1.0,0.0,28,0.00,,,0.00,271,WeatherTracker,2013-10-11 21:32:00,
2013-10-11 14:37:00,78.1,42.3,29.84,West,271,0.0,0.0,28,0.00,,,0.00,111,WeatherTracker,2013-10-11 21:37:00,
2013-10-11 14:42:00,78.1,41.4,29.84,West,278,2.0,0.0,27,0.00,,,0.00,559,WeatherTracker,2013-10-11 21:42:00,
2013-10-11 14:52:00,78.0,41.3,29.84,WSW,242,1.0,0.0,27,0.00,,,0.00,464,WeatherTracker,2013-10-11 21:52:00,
2013-10-11 15:02:00,78.0,39.3,29.84,NW,307,1.0,0.0,25,0.00,,,0.00,420,WeatherTracker,2013-10-11 22:02:00,
2013-10-11 15:12:00,77.9,39.2,29.84,SSW,205,0.0,0.0,25,0.00,,,0.00,399,WeatherTracker,2013-10-11 22:12:00,
2013-10-11 15:22:00,78.2,39.5,29.84,WSW,251,1.0,0.0,25,0.00,,,0.00,380,WeatherTracker,2013-10-11 22:22:00,
2013-10-11 15:32:00,78.3,37.4,29.84,SSW,213,0.0,0.0,23,0.00,,,0.00,427,WeatherTracker,2013-10-11 22:32:00,
2013-10-11 15:42:00,78.0,37.2,29.83,West,265,1.0,0.0,23,0.00,,,0.00,332,WeatherTracker,2013-10-11 22:42:00,
2013-10-11 15:52:00,77.8,37.0,29.83,WNW,290,1.0,0.0,23,0.00,,,0.00,279,WeatherTracker,2013-10-11 22:52:00,
2013-10-11 16:02:00,77.3,36.6,29.82,WSW,255,0.0,0.0,23,0.00,,,0.00,246,WeatherTracker,2013-10-11 23:02:00,
2013-10-11 16:12:00,76.6,36.0,29.82,WNW,283,0.0,0.0,23,0.00,,,0.00,72,WeatherTracker,2013-10-11 23:12:00,
2013-10-11 16:22:00,76.1,36.7,29.82,WNW,296,1.0,0.0,24,0.00,,,0.00,40,WeatherTracker,2013-10-11 23:22:00,
2013-10-11 16:32:00,75.7,37.4,29.82,WSW,251,0.0,0.0,25,0.00,,,0.00,58,WeatherTracker,2013-10-11 23:32:00,
2013-10-11 16:37:00,75.5,38.2,29.82,WNW,283,1.0,0.0,26,0.00,,,0.00,30,WeatherTracker,2013-10-11 23:37:00,
2013-10-11 16:47:00,75.1,37.9,29.82,WNW,289,2.0,0.0,26,0.00,,,0.00,39,WeatherTracker,2013-10-11 23:47:00,
2013-10-11 16:57:00,74.9,38.7,29.82,West,268,0.0,0.0,27,0.00,,,0.00,28,WeatherTracker,2013-10-11 23:57:00,
2013-10-11 17:07:00,74.4,38.2,29.81,WNW,291,0.0,0.0,27,0.00,,,0.00,21,WeatherTracker,2013-10-12 00:07:00,
2013-10-11 17:12:00,74.2,38.1,29.81,WSW,254,1.0,0.0,27,0.00,,,0.00,19,WeatherTracker,2013-10-12 00:12:00,
2013-10-11 17:22:00,73.8,38.6,29.81,WNW,285,0.0,0.0,28,0.00,,,0.00,14,WeatherTracker,2013-10-12 00:22:00,
2013-10-11 17:32:00,73.2,38.1,29.82,WNW,290,1.0,0.0,28,0.00,,,0.00,11,WeatherTracker,2013-10-12 00:32:00,
2013-10-11 17:42:00,72.6,37.6,29.81,West,265,0.0,0.0,28,0.00,,,0.00,7,WeatherTracker,2013-10-12 00:42:00,
2013-10-11 17:52:00,71.9,37.9,29.82,West,281,0.0,0.0,29,0.00,,,0.00,0,WeatherTracker,2013-10-12 00:52:00,
2013-10-11 18:03:00,71.3,37.4,29.81,WNW,286,1.0,0.0,29,0.00,,,0.00,0,WeatherTracker,2013-10-12 01:03:00,
2013-10-11 18:12:00,71.2,37.3,29.81,WNW,286,0.0,0.0,29,0.00,,,0.00,0,WeatherTracker,2013-10-12 01:12:00,
2013-10-11 18:22:00,70.3,37.4,29.81,WNW,293,0.0,0.0,30,0.00,,,0.00,0,WeatherTracker,2013-10-12 01:22:00,
2013-10-11 18:32:00,69.8,37.0,29.82,WNW,293,0.0,0.0,30,0.00,,,0.00,0,WeatherTracker,2013-10-12 01:32:00,
2013-10-11 18:42:00,69.3,38.2,29.82,WNW,293,0.0,0.0,32,0.00,,,0.00,0,WeatherTracker,2013-10-12 01:42:00,
2013-10-11 18:47:00,69.0,37.9,29.82,WNW,293,0.0,0.0,32,0.00,,,0.00,0,WeatherTracker,2013-10-12 01:47:00,
2013-10-11 18:57:00,68.4,37.4,29.82,WNW,293,0.0,0.0,32,0.00,,,0.00,0,WeatherTracker,2013-10-12 01:57:00,
2013-10-11 19:07:00,67.7,37.6,29.82,WNW,293,0.0,0.0,33,0.00,,,0.00,0,WeatherTracker,2013-10-12 02:07:00,
2013-10-11 19:17:00,67.0,37.7,29.82,WNW,293,0.0,0.0,34,0.00,,,0.00,0,WeatherTracker,2013-10-12 02:17:00,
2013-10-11 19:22:00,66.5,38.0,29.82,WNW,293,0.0,0.0,35,0.00,,,0.00,0,WeatherTracker,2013-10-12 02:22:00,
2013-10-11 19:32:00,65.6,37.9,29.82,WNW,293,0.0,0.0,36,0.00,,,0.00,0,WeatherTracker,2013-10-12 02:32:00,
2013-10-11 19:37:00,65.1,37.5,29.82,WNW,293,0.0,0.0,36,0.00,,,0.00,0,WeatherTracker,2013-10-12 02:37:00,
2013-10-11 19:47:00,64.4,37.6,29.82,WNW,293,0.0,0.0,37,0.00,,,0.00,0,WeatherTracker,2013-10-12 02:47:00,
2013-10-11 19:52:00,64.1,37.3,29.83,WNW,293,0.0,0.0,37,0.00,,,0.00,0,WeatherTracker,2013-10-12 02:52:00,
2013-10-11 20:02:00,63.5,37.4,29.83,WNW,293,0.0,0.0,38,0.00,,,0.00,0,WeatherTracker,2013-10-12 03:02:00,
2013-10-11 20:12:00,63.1,37.1,29.83,WNW,293,0.0,0.0,38,0.00,,,0.00,0,WeatherTracker,2013-10-12 03:12:00,
2013-10-11 20:22:00,62.6,37.3,29.83,WNW,293,0.0,0.0,39,0.00,,,0.00,0,WeatherTracker,2013-10-12 03:22:00,
2013-10-11 20:32:00,62.3,37.0,29.83,WNW,293,0.0,0.0,39,0.00,,,0.00,0,WeatherTracker,2013-10-12 03:32:00,
2013-10-11 20:42:00,62.0,37.4,29.83,WNW,293,0.0,0.0,40,0.00,,,0.00,0,WeatherTracker,2013-10-12 03:42:00,
2013-10-11 20:52:00,61.6,37.0,29.83,WNW,293,0.0,0.0,40,0.00,,,0.00,0,WeatherTracker,2013-10-12 03:52:00,
2013-10-11 20:57:00,61.4,37.5,29.84,WNW,293,0.0,0.0,41,0.00,,,0.00,0,WeatherTracker,2013-10-12 03:57:00,
2013-10-11 21:02:00,61.2,37.3,29.84,WNW,293,0.0,0.0,41,0.00,,,0.00,0,WeatherTracker,2013-10-12 04:02:00,
2013-10-11 21:07:00,61.1,37.2,29.84,WNW,293,0.0,0.0,41,0.00,,,0.00,0,WeatherTracker,2013-10-12 04:07:00,
2013-10-11 21:17:00,60.6,37.4,29.84,WNW,293,0.0,0.0,42,0.00,,,0.00,0,WeatherTracker,2013-10-12 04:17:00,
2013-10-11 21:27:00,60.2,37.0,29.84,WNW,293,0.0,0.0,42,0.00,,,0.00,0,WeatherTracker,2013-10-12 04:27:00,
2013-10-11 21:32:00,60.1,36.9,29.84,WNW,293,0.0,0.0,42,0.00,,,0.00,0,WeatherTracker,2013-10-12 04:32:00,
2013-10-11 21:37:00,60.0,36.8,29.84,WNW,293,0.0,0.0,42,0.00,,,0.00,0,WeatherTracker,2013-10-12 04:37:00,
2013-10-11 21:48:00,59.8,36.7,29.84,WNW,293,0.0,0.0,42,0.00,,,0.00,0,WeatherTracker,2013-10-12 04:48:00,
2013-10-11 21:57:00,59.7,36.6,29.85,WNW,293,0.0,0.0,42,0.00,,,0.00,0,WeatherTracker,2013-10-12 04:57:00,
2013-10-11 22:02:00,59.6,36.5,29.85,WNW,293,0.0,0.0,42,0.00,,,0.00,0,WeatherTracker,2013-10-12 05:02:00,
2013-10-11 22:12:00,59.6,36.5,29.85,WNW,293,0.0,0.0,42,0.00,,,0.00,0,WeatherTracker,2013-10-12 05:12:00,
2013-10-11 22:23:00,59.5,37.0,29.85,WNW,293,0.0,0.0,43,0.00,,,0.00,0,WeatherTracker,2013-10-12 05:23:00,
2013-10-11 22:32:00,59.4,36.9,29.85,WNW,293,0.0,0.0,43,0.00,,,0.00,0,WeatherTracker,2013-10-12 05:32:00,
2013-10-11 22:42:00,58.9,37.0,29.86,WNW,293,0.0,0.0,44,0.00,,,0.00,0,WeatherTracker,2013-10-12 05:42:00,
2013-10-11 22:52:00,58.6,36.8,29.86,WNW,293,0.0,0.0,44,0.00,,,0.00,0,WeatherTracker,2013-10-12 05:52:00,
2013-10-11 23:02:00,58.1,36.9,29.86,WNW,293,0.0,0.0,45,0.00,,,0.00,0,WeatherTracker,2013-10-12 06:02:00,
2013-10-11 23:07:00,57.7,36.5,29.86,WNW,293,0.0,0.0,45,0.00,,,0.00,0,WeatherTracker,2013-10-12 06:07:00,
2013-10-11 23:17:00,57.3,36.7,29.86,WNW,293,0.0,0.0,46,0.00,,,0.00,0,WeatherTracker,2013-10-12 06:17:00,
2013-10-11 23:27:00,56.9,36.9,29.86,WNW,293,0.0,0.0,47,0.00,,,0.00,0,WeatherTracker,2013-10-12 06:27:00,
2013-10-11 23:37:00,56.6,36.1,29.86,WNW,293,0.0,0.0,46,0.00,,,0.00,0,WeatherTracker,2013-10-12 06:37:00,
2013-10-11 23:47:00,56.4,36.4,29.86,WNW,293,0.0,0.0,47,0.00,,,0.00,0,WeatherTracker,2013-10-12 06:47:00,
2013-10-11 23:57:00,56.1,36.7,29.86,WNW,293,0.0,0.0,48,0.00,,,0.00,0,WeatherTracker,2013-10-12 06:57:00,